Terminal Aerodrome Forecast
Issued by NWS

Home | Current Version | Previous Version | Text Only | Print | Product List | Glossary On
Versions: 1 2 3 4 5 6 7 8 9 10 11 12
000
FTUS44 KEWX 241100
TAFSSF
TAF
KSSF 241120Z 2412/2512 VRB03KT P6SM SKC
     FM241600 16004KT P6SM FEW050
     FM250300 VRB03KT P6SM SKC=

USA.gov is the U.S. government's official web portal to all federal, state and local government web resources and services.